sensor_id;sensor_type;location;lat;lon;timestamp;temperature;humidity
21891;DHT22;11110;52.386;16.940;2024-01-10T00:00:05;9.60;33.60
21891;DHT22;11110;52.386;16.940;2024-01-10T00:02:34;9.60;33.60
21891;DHT22;11110;52.386;16.940;2024-01-10T00:05:04;9.60;33.60
21891;DHT22;11110;52.386;16.940;2024-01-10T00:07:34;9.60;33.60
21891;DHT22;11110;52.386;16.940;2024-01-10T00:10:04;9.60;34.20
21891;DHT22;11110;52.386;16.940;2024-01-10T00:12:33;9.60;33.60
21891;DHT22;11110;52.386;16.940;2024-01-10T00:15:04;9.60;33.70
21891;DHT22;11110;52.386;16.940;2024-01-10T00:17:33;9.60;33.70
21891;DHT22;11110;52.386;16.940;2024-01-10T00:20:02;9.60;33.60
21891;DHT22;11110;52.386;16.940;2024-01-10T00:22:31;9.60;33.50
21891;DHT22;11110;52.386;16.940;2024-01-10T00:25:01;9.60;33.40
21891;DHT22;11110;52.386;16.940;2024-01-10T00:27:30;9.60;33.60
21891;DHT22;11110;52.386;16.940;2024-01-10T00:29:58;9.60;33.40
21891;DHT22;11110;52.386;16.940;2024-01-10T00:32:27;9.60;33.50
21891;DHT22;11110;52.386;16.940;2024-01-10T00:34:55;9.60;33.60
21891;DHT22;11110;52.386;16.940;2024-01-10T00:37:24;9.60;33.60
21891;DHT22;11110;52.386;16.940;2024-01-10T00:39:53;9.60;34.30
21891;DHT22;11110;52.386;16.940;2024-01-10T00:42:23;9.60;33.50
21891;DHT22;11110;52.386;16.940;2024-01-10T00:44:52;9.60;33.60
21891;DHT22;11110;52.386;16.940;2024-01-10T00:47:20;9.60;33.30
21891;DHT22;11110;52.386;16.940;2024-01-10T00:49:49;9.60;33.30
21891;DHT22;11110;52.386;16.940;2024-01-10T00:52:18;9.60;33.10
21891;DHT22;11110;52.386;16.940;2024-01-10T00:54:47;9.60;33.10
21891;DHT22;11110;52.386;16.940;2024-01-10T00:57:15;9.60;32.90
21891;DHT22;11110;52.386;16.940;2024-01-10T00:59:45;9.60;32.90
21891;DHT22;11110;52.386;16.940;2024-01-10T01:02:13;9.50;32.90
21891;DHT22;11110;52.386;16.940;2024-01-10T01:04:42;9.50;33.00
21891;DHT22;11110;52.386;16.940;2024-01-10T01:07:11;9.50;33.10
21891;DHT22;11110;52.386;16.940;2024-01-10T01:09:39;9.50;33.10
21891;DHT22;11110;52.386;16.940;2024-01-10T01:12:08;9.50;33.20
21891;DHT22;11110;52.386;16.940;2024-01-10T01:14:36;9.50;33.10
21891;DHT22;11110;52.386;16.940;2024-01-10T01:17:06;9.50;33.10
21891;DHT22;11110;52.386;16.940;2024-01-10T01:19:35;9.40;33.20
21891;DHT22;11110;52.386;16.940;2024-01-10T01:22:04;9.40;33.10
21891;DHT22;11110;52.386;16.940;2024-01-10T01:24:33;9.40;33.20
21891;DHT22;11110;52.386;16.940;2024-01-10T01:27:02;9.50;33.20
21891;DHT22;11110;52.386;16.940;2024-01-10T01:29:30;9.40;33.20
21891;DHT22;11110;52.386;16.940;2024-01-10T01:31:59;9.40;33.30
21891;DHT22;11110;52.386;16.940;2024-01-10T01:34:29;9.30;33.50
21891;DHT22;11110;52.386;16.940;2024-01-10T01:36:57;9.30;33.60
21891;DHT22;11110;52.386;16.940;2024-01-10T01:39:26;9.30;33.80
21891;DHT22;11110;52.386;16.940;2024-01-10T01:41:54;9.40;34.00
21891;DHT22;11110;52.386;16.940;2024-01-10T01:44:23;9.30;33.80
21891;DHT22;11110;52.386;16.940;2024-01-10T01:46:51;9.30;33.90
21891;DHT22;11110;52.386;16.940;2024-01-10T01:49:20;9.30;34.00
21891;DHT22;11110;52.386;16.940;2024-01-10T01:51:50;9.40;34.30
21891;DHT22;11110;52.386;16.940;2024-01-10T01:54:19;9.30;33.80
21891;DHT22;11110;52.386;16.940;2024-01-10T01:56:48;9.30;33.90
21891;DHT22;11110;52.386;16.940;2024-01-10T01:59:17;9.30;33.90
21891;DHT22;11110;52.386;16.940;2024-01-10T02:01:45;9.30;34.00
21891;DHT22;11110;52.386;16.940;2024-01-10T02:04:14;9.30;34.00
21891;DHT22;11110;52.386;16.940;2024-01-10T02:06:43;9.40;34.10
21891;DHT22;11110;52.386;16.940;2024-01-10T02:09:13;9.40;34.30
21891;DHT22;11110;52.386;16.940;2024-01-10T02:11:42;9.30;33.90
21891;DHT22;11110;52.386;16.940;2024-01-10T02:14:12;9.40;33.90
21891;DHT22;11110;52.386;16.940;2024-01-10T02:16:41;9.40;34.60
21891;DHT22;11110;52.386;16.940;2024-01-10T02:19:20;9.40;34.10
21891;DHT22;11110;52.386;16.940;2024-01-10T02:21:49;9.40;34.10
21891;DHT22;11110;52.386;16.940;2024-01-10T02:24:19;9.40;34.10
21891;DHT22;11110;52.386;16.940;2024-01-10T02:26:49;9.40;34.10
21891;DHT22;11110;52.386;16.940;2024-01-10T02:29:18;9.40;33.90
21891;DHT22;11110;52.386;16.940;2024-01-10T02:31:47;9.40;33.90
21891;DHT22;11110;52.386;16.940;2024-01-10T02:34:15;9.40;33.90
21891;DHT22;11110;52.386;16.940;2024-01-10T02:36:44;9.40;33.90
21891;DHT22;11110;52.386;16.940;2024-01-10T02:39:12;9.50;33.90
21891;DHT22;11110;52.386;16.940;2024-01-10T02:41:41;9.50;33.90
21891;DHT22;11110;52.386;16.940;2024-01-10T02:44:11;9.40;33.60
21891;DHT22;11110;52.386;16.940;2024-01-10T02:46:42;9.50;33.60
21891;DHT22;11110;52.386;16.940;2024-01-10T02:49:10;9.40;33.60
21891;DHT22;11110;52.386;16.940;2024-01-10T02:51:39;9.40;33.60
21891;DHT22;11110;52.386;16.940;2024-01-10T02:54:08;9.40;33.70
21891;DHT22;11110;52.386;16.940;2024-01-10T02:56:36;9.40;33.60
21891;DHT22;11110;52.386;16.940;2024-01-10T02:59:05;9.40;33.60
21891;DHT22;11110;52.386;16.940;2024-01-10T03:01:35;9.30;33.60
21891;DHT22;11110;52.386;16.940;2024-01-10T03:04:03;9.30;33.50
21891;DHT22;11110;52.386;16.940;2024-01-10T03:06:32;9.30;33.40
21891;DHT22;11110;52.386;16.940;2024-01-10T03:09:00;9.30;33.50
21891;DHT22;11110;52.386;16.940;2024-01-10T03:11:30;9.30;33.40
21891;DHT22;11110;52.386;16.940;2024-01-10T03:14:02;9.30;33.40
21891;DHT22;11110;52.386;16.940;2024-01-10T03:16:31;9.40;33.50
21891;DHT22;11110;52.386;16.940;2024-01-10T03:19:01;9.20;33.50
21891;DHT22;11110;52.386;16.940;2024-01-10T03:21:30;9.30;33.60
21891;DHT22;11110;52.386;16.940;2024-01-10T03:23:59;9.20;33.60
21891;DHT22;11110;52.386;16.940;2024-01-10T03:26:28;9.20;33.70
21891;DHT22;11110;52.386;16.940;2024-01-10T03:28:58;9.30;33.70
21891;DHT22;11110;52.386;16.940;2024-01-10T03:31:28;9.30;34.30
21891;DHT22;11110;52.386;16.940;2024-01-10T03:33:57;9.30;33.60
21891;DHT22;11110;52.386;16.940;2024-01-10T03:36:28;9.30;33.60
21891;DHT22;11110;52.386;16.940;2024-01-10T03:38:57;9.30;34.30
21891;DHT22;11110;52.386;16.940;2024-01-10T03:41:25;9.30;33.50
21891;DHT22;11110;52.386;16.940;2024-01-10T03:43:54;9.30;33.60
21891;DHT22;11110;52.386;16.940;2024-01-10T03:46:23;9.30;33.60
21891;DHT22;11110;52.386;16.940;2024-01-10T03:48:51;9.30;33.60
21891;DHT22;11110;52.386;16.940;2024-01-10T03:51:20;9.30;33.70
21891;DHT22;11110;52.386;16.940;2024-01-10T03:53:50;9.30;33.70
21891;DHT22;11110;52.386;16.940;2024-01-10T03:56:18;9.30;34.30
21891;DHT22;11110;52.386;16.940;2024-01-10T03:58:47;9.30;33.60
21891;DHT22;11110;52.386;16.940;2024-01-10T04:01:16;9.40;33.70
21891;DHT22;11110;52.386;16.940;2024-01-10T04:03:45;9.30;33.60
21891;DHT22;11110;52.386;16.940;2024-01-10T04:06:14;9.30;33.60
21891;DHT22;11110;52.386;16.940;2024-01-10T04:08:42;9.30;33.60
21891;DHT22;11110;52.386;16.940;2024-01-10T04:11:12;9.30;33.60
21891;DHT22;11110;52.386;16.940;2024-01-10T04:13:41;9.30;33.50
21891;DHT22;11110;52.386;16.940;2024-01-10T04:16:09;9.30;33.50
21891;DHT22;11110;52.386;16.940;2024-01-10T04:18:38;9.30;33.40
21891;DHT22;11110;52.386;16.940;2024-01-10T04:21:07;9.30;33.40
21891;DHT22;11110;52.386;16.940;2024-01-10T04:23:35;9.30;33.40
21891;DHT22;11110;52.386;16.940;2024-01-10T04:26:04;9.40;34.10
21891;DHT22;11110;52.386;16.940;2024-01-10T04:28:34;9.20;33.30
21891;DHT22;11110;52.386;16.940;2024-01-10T04:31:03;9.20;33.30
21891;DHT22;11110;52.386;16.940;2024-01-10T04:33:31;9.20;33.40
21891;DHT22;11110;52.386;16.940;2024-01-10T04:36:00;9.20;33.40
21891;DHT22;11110;52.386;16.940;2024-01-10T04:38:28;9.20;33.30
21891;DHT22;11110;52.386;16.940;2024-01-10T04:40:57;9.30;33.40
21891;DHT22;11110;52.386;16.940;2024-01-10T04:43:26;9.20;33.30
21891;DHT22;11110;52.386;16.940;2024-01-10T04:45:56;9.20;33.30
21891;DHT22;11110;52.386;16.940;2024-01-10T04:48:24;9.20;33.30
21891;DHT22;11110;52.386;16.940;2024-01-10T04:50:53;9.20;33.30
21891;DHT22;11110;52.386;16.940;2024-01-10T04:53:22;9.30;33.30
21891;DHT22;11110;52.386;16.940;2024-01-10T04:55:51;9.20;33.20
21891;DHT22;11110;52.386;16.940;2024-01-10T04:58:20;9.20;33.10
21891;DHT22;11110;52.386;16.940;2024-01-10T05:00:48;9.20;33.10
21891;DHT22;11110;52.386;16.940;2024-01-10T05:03:18;9.20;33.20
21891;DHT22;11110;52.386;16.940;2024-01-10T05:05:48;9.20;33.20
21891;DHT22;11110;52.386;16.940;2024-01-10T05:08:16;9.20;33.20
21891;DHT22;11110;52.386;16.940;2024-01-10T05:10:48;9.10;33.10
21891;DHT22;11110;52.386;16.940;2024-01-10T05:13:17;9.20;33.20
21891;DHT22;11110;52.386;16.940;2024-01-10T05:15:46;9.10;33.20
21891;DHT22;11110;52.386;16.940;2024-01-10T05:18:16;9.10;33.20
21891;DHT22;11110;52.386;16.940;2024-01-10T05:20:46;9.10;33.10
21891;DHT22;11110;52.386;16.940;2024-01-10T05:23:15;9.10;33.10
21891;DHT22;11110;52.386;16.940;2024-01-10T05:25:44;9.10;33.10
21891;DHT22;11110;52.386;16.940;2024-01-10T05:28:12;9.10;33.20
21891;DHT22;11110;52.386;16.940;2024-01-10T05:30:41;9.10;33.20
21891;DHT22;11110;52.386;16.940;2024-01-10T05:33:10;9.10;33.30
21891;DHT22;11110;52.386;16.940;2024-01-10T05:35:39;9.10;33.40
21891;DHT22;11110;52.386;16.940;2024-01-10T05:38:09;9.10;33.60
21891;DHT22;11110;52.386;16.940;2024-01-10T05:40:38;9.30;33.80
21891;DHT22;11110;52.386;16.940;2024-01-10T05:43:06;9.30;33.90
21891;DHT22;11110;52.386;16.940;2024-01-10T05:45:35;9.10;33.80
21891;DHT22;11110;52.386;16.940;2024-01-10T05:48:04;9.20;33.80
21891;DHT22;11110;52.386;16.940;2024-01-10T05:50:34;9.10;33.70
21891;DHT22;11110;52.386;16.940;2024-01-10T05:53:02;9.10;33.70
21891;DHT22;11110;52.386;16.940;2024-01-10T05:55:33;9.10;33.70
21891;DHT22;11110;52.386;16.940;2024-01-10T05:58:01;9.00;33.70
21891;DHT22;11110;52.386;16.940;2024-01-10T06:00:30;9.10;33.70
21891;DHT22;11110;52.386;16.940;2024-01-10T06:02:59;9.00;33.70
21891;DHT22;11110;52.386;16.940;2024-01-10T06:05:28;9.10;34.20
21891;DHT22;11110;52.386;16.940;2024-01-10T06:07:56;9.10;33.60
21891;DHT22;11110;52.386;16.940;2024-01-10T06:10:25;9.10;33.60
21891;DHT22;11110;52.386;16.940;2024-01-10T06:12:55;9.10;33.50
21891;DHT22;11110;52.386;16.940;2024-01-10T06:15:24;9.10;33.60
21891;DHT22;11110;52.386;16.940;2024-01-10T06:17:52;9.00;33.50
21891;DHT22;11110;52.386;16.940;2024-01-10T06:20:21;9.10;33.60
21891;DHT22;11110;52.386;16.940;2024-01-10T06:22:50;9.10;33.60
21891;DHT22;11110;52.386;16.940;2024-01-10T06:25:19;9.10;34.20
21891;DHT22;11110;52.386;16.940;2024-01-10T06:27:47;9.10;33.50
21891;DHT22;11110;52.386;16.940;2024-01-10T06:30:17;9.10;33.30
21891;DHT22;11110;52.386;16.940;2024-01-10T06:32:46;9.20;33.40
21891;DHT22;11110;52.386;16.940;2024-01-10T06:35:14;9.10;33.30
21891;DHT22;11110;52.386;16.940;2024-01-10T06:37:43;9.10;33.30
21891;DHT22;11110;52.386;16.940;2024-01-10T06:40:12;9.10;33.50
21891;DHT22;11110;52.386;16.940;2024-01-10T06:42:40;9.10;33.40
21891;DHT22;11110;52.386;16.940;2024-01-10T06:45:10;9.10;33.50
21891;DHT22;11110;52.386;16.940;2024-01-10T06:47:40;9.00;33.40
21891;DHT22;11110;52.386;16.940;2024-01-10T06:50:09;9.00;33.50
21891;DHT22;11110;52.386;16.940;2024-01-10T06:52:38;9.00;33.70
21891;DHT22;11110;52.386;16.940;2024-01-10T06:55:07;9.00;33.80
21891;DHT22;11110;52.386;16.940;2024-01-10T06:57:36;9.00;33.90
21891;DHT22;11110;52.386;16.940;2024-01-10T07:00:05;9.10;34.00
21891;DHT22;11110;52.386;16.940;2024-01-10T07:02:40;9.10;34.00
21891;DHT22;11110;52.386;16.940;2024-01-10T07:05:09;9.10;34.00
21891;DHT22;11110;52.386;16.940;2024-01-10T07:07:38;9.10;34.00
21891;DHT22;11110;52.386;16.940;2024-01-10T07:10:07;9.10;33.80
21891;DHT22;11110;52.386;16.940;2024-01-10T07:12:35;9.10;33.70
21891;DHT22;11110;52.386;16.940;2024-01-10T07:15:05;9.10;33.60
21891;DHT22;11110;52.386;16.940;2024-01-10T07:17:33;9.10;33.70
21891;DHT22;11110;52.386;16.940;2024-01-10T07:20:04;9.10;33.80
21891;DHT22;11110;52.386;16.940;2024-01-10T07:22:34;9.20;34.00
21891;DHT22;11110;52.386;16.940;2024-01-10T07:25:03;9.20;34.00
21891;DHT22;11110;52.386;16.940;2024-01-10T07:27:35;9.20;34.10
21891;DHT22;11110;52.386;16.940;2024-01-10T07:30:05;9.10;34.00
21891;DHT22;11110;52.386;16.940;2024-01-10T07:32:40;9.20;33.90
21891;DHT22;11110;52.386;16.940;2024-01-10T07:35:12;9.20;33.90
21891;DHT22;11110;52.386;16.940;2024-01-10T07:37:41;9.20;33.90
21891;DHT22;11110;52.386;16.940;2024-01-10T07:40:11;9.20;33.90
21891;DHT22;11110;52.386;16.940;2024-01-10T07:42:40;9.20;33.90
21891;DHT22;11110;52.386;16.940;2024-01-10T07:45:09;9.20;33.90
21891;DHT22;11110;52.386;16.940;2024-01-10T07:47:38;9.30;33.90
21891;DHT22;11110;52.386;16.940;2024-01-10T07:50:08;9.30;33.90
21891;DHT22;11110;52.386;16.940;2024-01-10T07:52:38;9.30;33.80
21891;DHT22;11110;52.386;16.940;2024-01-10T07:55:08;9.30;33.90
21891;DHT22;11110;52.386;16.940;2024-01-10T07:57:37;9.30;33.80
21891;DHT22;11110;52.386;16.940;2024-01-10T08:00:06;9.30;33.80
21891;DHT22;11110;52.386;16.940;2024-01-10T08:02:38;9.40;33.90
21891;DHT22;11110;52.386;16.940;2024-01-10T08:05:08;9.40;33.90
21891;DHT22;11110;52.386;16.940;2024-01-10T08:07:38;8.60;33.50
21891;DHT22;11110;52.386;16.940;2024-01-10T08:10:08;9.50;34.00
21891;DHT22;11110;52.386;16.940;2024-01-10T08:12:37;9.50;34.00
21891;DHT22;11110;52.386;16.940;2024-01-10T08:15:07;9.50;34.00
21891;DHT22;11110;52.386;16.940;2024-01-10T08:17:35;9.60;34.10
21891;DHT22;11110;52.386;16.940;2024-01-10T08:20:06;9.60;34.20
21891;DHT22;11110;52.386;16.940;2024-01-10T08:22:39;9.60;34.10
21891;DHT22;11110;52.386;16.940;2024-01-10T08:25:08;9.60;34.20
21891;DHT22;11110;52.386;16.940;2024-01-10T08:27:36;9.70;34.30
21891;DHT22;11110;52.386;16.940;2024-01-10T08:30:09;9.70;34.30
21891;DHT22;11110;52.386;16.940;2024-01-10T08:32:37;9.80;34.40
21891;DHT22;11110;52.386;16.940;2024-01-10T08:35:07;9.80;34.40
21891;DHT22;11110;52.386;16.940;2024-01-10T08:37:37;9.80;34.70
21891;DHT22;11110;52.386;16.940;2024-01-10T08:40:10;9.80;35.00
21891;DHT22;11110;52.386;16.940;2024-01-10T08:42:41;9.90;35.10
21891;DHT22;11110;52.386;16.940;2024-01-10T08:45:10;10.00;35.10
21891;DHT22;11110;52.386;16.940;2024-01-10T08:47:38;10.00;35.10
21891;DHT22;11110;52.386;16.940;2024-01-10T08:50:07;10.10;35.20
21891;DHT22;11110;52.386;16.940;2024-01-10T08:52:37;10.10;35.20
21891;DHT22;11110;52.386;16.940;2024-01-10T08:55:07;10.20;35.20
21891;DHT22;11110;52.386;16.940;2024-01-10T08:57:41;10.20;35.00
21891;DHT22;11110;52.386;16.940;2024-01-10T09:00:11;10.20;34.90
21891;DHT22;11110;52.386;16.940;2024-01-10T09:02:43;10.30;35.00
21891;DHT22;11110;52.386;16.940;2024-01-10T09:05:11;10.30;35.10
21891;DHT22;11110;52.386;16.940;2024-01-10T09:07:40;10.30;35.10
21891;DHT22;11110;52.386;16.940;2024-01-10T09:10:10;10.50;35.20
21891;DHT22;11110;52.386;16.940;2024-01-10T09:12:38;10.40;35.10
21891;DHT22;11110;52.386;16.940;2024-01-10T09:15:12;10.50;35.10
21891;DHT22;11110;52.386;16.940;2024-01-10T09:17:41;10.50;35.10
21891;DHT22;11110;52.386;16.940;2024-01-10T09:20:11;10.60;35.10
21891;DHT22;11110;52.386;16.940;2024-01-10T09:22:49;10.60;35.00
21891;DHT22;11110;52.386;16.940;2024-01-10T09:25:21;10.60;34.90
21891;DHT22;11110;52.386;16.940;2024-01-10T09:27:49;10.70;34.90
21891;DHT22;11110;52.386;16.940;2024-01-10T09:30:19;10.80;34.80
21891;DHT22;11110;52.386;16.940;2024-01-10T09:32:48;10.80;34.80
21891;DHT22;11110;52.386;16.940;2024-01-10T09:35:17;10.80;35.00
21891;DHT22;11110;52.386;16.940;2024-01-10T09:37:45;10.80;35.00
21891;DHT22;11110;52.386;16.940;2024-01-10T09:40:15;11.00;35.20
21891;DHT22;11110;52.386;16.940;2024-01-10T09:42:44;10.90;35.20
21891;DHT22;11110;52.386;16.940;2024-01-10T09:45:15;11.10;35.20
21891;DHT22;11110;52.386;16.940;2024-01-10T09:47:50;11.20;35.10
21891;DHT22;11110;52.386;16.940;2024-01-10T09:50:21;11.20;34.70
21891;DHT22;11110;52.386;16.940;2024-01-10T09:52:51;11.20;34.60
21891;DHT22;11110;52.386;16.940;2024-01-10T09:55:22;11.30;34.50
21891;DHT22;11110;52.386;16.940;2024-01-10T09:57:52;11.30;34.40
21891;DHT22;11110;52.386;16.940;2024-01-10T10:00:22;11.40;33.90
21891;DHT22;11110;52.386;16.940;2024-01-10T10:02:54;11.50;33.40
21891;DHT22;11110;52.386;16.940;2024-01-10T10:05:25;11.50;33.20
21891;DHT22;11110;52.386;16.940;2024-01-10T10:07:53;11.40;33.40
21891;DHT22;11110;52.386;16.940;2024-01-10T10:10:23;11.60;33.20
21891;DHT22;11110;52.386;16.940;2024-01-10T10:12:52;11.60;33.00
21891;DHT22;11110;52.386;16.940;2024-01-10T10:15:22;11.70;33.10
21891;DHT22;11110;52.386;16.940;2024-01-10T10:17:54;11.90;33.10
21891;DHT22;11110;52.386;16.940;2024-01-10T10:20:25;11.80;33.00
21891;DHT22;11110;52.386;16.940;2024-01-10T10:22:59;11.80;32.80
21891;DHT22;11110;52.386;16.940;2024-01-10T10:25:29;11.90;32.60
21891;DHT22;11110;52.386;16.940;2024-01-10T10:28:00;12.10;32.60
21891;DHT22;11110;52.386;16.940;2024-01-10T10:30:30;12.00;32.80
21891;DHT22;11110;52.386;16.940;2024-01-10T10:33:01;12.00;32.80
21891;DHT22;11110;52.386;16.940;2024-01-10T10:35:32;12.10;32.80
21891;DHT22;11110;52.386;16.940;2024-01-10T10:38:08;12.20;32.60
21891;DHT22;11110;52.386;16.940;2024-01-10T10:40:38;12.20;32.50
21891;DHT22;11110;52.386;16.940;2024-01-10T10:43:10;12.40;32.70
21891;DHT22;11110;52.386;16.940;2024-01-10T10:45:44;12.40;32.60
21891;DHT22;11110;52.386;16.940;2024-01-10T10:48:17;12.30;32.60
21891;DHT22;11110;52.386;16.940;2024-01-10T10:50:53;12.40;32.40
21891;DHT22;11110;52.386;16.940;2024-01-10T10:53:25;12.50;32.30
21891;DHT22;11110;52.386;16.940;2024-01-10T10:55:57;12.50;32.30
21891;DHT22;11110;52.386;16.940;2024-01-10T10:58:27;12.60;32.30
21891;DHT22;11110;52.386;16.940;2024-01-10T11:00:57;12.60;32.10
21891;DHT22;11110;52.386;16.940;2024-01-10T11:03:27;12.70;32.20
21891;DHT22;11110;52.386;16.940;2024-01-10T11:05:58;12.70;31.70
21891;DHT22;11110;52.386;16.940;2024-01-10T11:08:32;12.80;31.40
21891;DHT22;11110;52.386;16.940;2024-01-10T11:11:04;12.80;31.20
21891;DHT22;11110;52.386;16.940;2024-01-10T11:13:53;12.90;31.20
21891;DHT22;11110;52.386;16.940;2024-01-10T11:17:02;12.90;31.00
21891;DHT22;11110;52.386;16.940;2024-01-10T11:19:58;13.00;30.50
21891;DHT22;11110;52.386;16.940;2024-01-10T11:22:43;13.00;30.20
21891;DHT22;11110;52.386;16.940;2024-01-10T11:25:14;13.10;30.40
21891;DHT22;11110;52.386;16.940;2024-01-10T11:27:43;13.10;30.20
21891;DHT22;11110;52.386;16.940;2024-01-10T11:30:30;13.30;31.10
21891;DHT22;11110;52.386;16.940;2024-01-10T11:33:02;13.40;30.50
21891;DHT22;11110;52.386;16.940;2024-01-10T11:35:32;13.40;30.40
21891;DHT22;11110;52.386;16.940;2024-01-10T11:38:04;13.50;29.90
21891;DHT22;11110;52.386;16.940;2024-01-10T11:40:51;13.60;29.80
21891;DHT22;11110;52.386;16.940;2024-01-10T11:43:21;13.70;29.90
21891;DHT22;11110;52.386;16.940;2024-01-10T11:45:52;13.70;29.90
21891;DHT22;11110;52.386;16.940;2024-01-10T11:48:27;13.80;29.70
21891;DHT22;11110;52.386;16.940;2024-01-10T11:50:58;13.90;29.50
21891;DHT22;11110;52.386;16.940;2024-01-10T11:53:41;13.90;29.60
21891;DHT22;11110;52.386;16.940;2024-01-10T11:56:14;14.00;29.40
21891;DHT22;11110;52.386;16.940;2024-01-10T11:59:01;14.10;29.20
21891;DHT22;11110;52.386;16.940;2024-01-10T12:01:31;14.10;29.00
21891;DHT22;11110;52.386;16.940;2024-01-10T12:04:01;14.20;29.00
21891;DHT22;11110;52.386;16.940;2024-01-10T12:06:45;14.30;28.90
21891;DHT22;11110;52.386;16.940;2024-01-10T12:09:15;14.40;28.70
21891;DHT22;11110;52.386;16.940;2024-01-10T12:11:44;14.40;28.70
21891;DHT22;11110;52.386;16.940;2024-01-10T12:14:12;14.40;28.50
21891;DHT22;11110;52.386;16.940;2024-01-10T12:16:41;14.50;28.20
21891;DHT22;11110;52.386;16.940;2024-01-10T12:19:11;14.60;28.00
21891;DHT22;11110;52.386;16.940;2024-01-10T12:21:39;14.60;28.00
21891;DHT22;11110;52.386;16.940;2024-01-10T12:24:09;14.70;28.70
21891;DHT22;11110;52.386;16.940;2024-01-10T12:26:43;14.80;28.00
21891;DHT22;11110;52.386;16.940;2024-01-10T12:29:12;14.80;28.00
21891;DHT22;11110;52.386;16.940;2024-01-10T12:31:40;14.90;28.10
21891;DHT22;11110;52.386;16.940;2024-01-10T12:34:12;15.00;28.00
21891;DHT22;11110;52.386;16.940;2024-01-10T12:36:41;15.00;28.00
21891;DHT22;11110;52.386;16.940;2024-01-10T12:39:12;15.10;28.00
21891;DHT22;11110;52.386;16.940;2024-01-10T12:41:40;15.20;28.00
21891;DHT22;11110;52.386;16.940;2024-01-10T12:44:10;15.30;28.10
21891;DHT22;11110;52.386;16.940;2024-01-10T12:46:49;15.40;27.70
21891;DHT22;11110;52.386;16.940;2024-01-10T12:49:22;15.50;28.20
21891;DHT22;11110;52.386;16.940;2024-01-10T12:51:51;15.50;27.80
21891;DHT22;11110;52.386;16.940;2024-01-10T12:54:21;15.50;27.70
21891;DHT22;11110;52.386;16.940;2024-01-10T12:56:50;15.60;27.70
21891;DHT22;11110;52.386;16.940;2024-01-10T12:59:18;15.70;27.70
21891;DHT22;11110;52.386;16.940;2024-01-10T13:01:47;15.70;27.30
21891;DHT22;11110;52.386;16.940;2024-01-10T13:04:15;15.80;27.00
21891;DHT22;11110;52.386;16.940;2024-01-10T13:06:44;15.80;26.90
21891;DHT22;11110;52.386;16.940;2024-01-10T13:09:13;15.90;27.00
21891;DHT22;11110;52.386;16.940;2024-01-10T13:11:42;15.90;27.00
21891;DHT22;11110;52.386;16.940;2024-01-10T13:14:12;16.00;26.80
21891;DHT22;11110;52.386;16.940;2024-01-10T13:16:41;15.90;26.60
21891;DHT22;11110;52.386;16.940;2024-01-10T13:19:25;16.00;26.60
21891;DHT22;11110;52.386;16.940;2024-01-10T13:21:54;16.00;26.60
21891;DHT22;11110;52.386;16.940;2024-01-10T13:24:23;16.10;26.80
21891;DHT22;11110;52.386;16.940;2024-01-10T13:26:53;16.10;26.60
21891;DHT22;11110;52.386;16.940;2024-01-10T13:29:22;16.10;26.50
21891;DHT22;11110;52.386;16.940;2024-01-10T13:31:50;16.30;26.60
21891;DHT22;11110;52.386;16.940;2024-01-10T13:34:19;16.30;26.60
21891;DHT22;11110;52.386;16.940;2024-01-10T13:36:47;16.40;26.60
21891;DHT22;11110;52.386;16.940;2024-01-10T13:39:16;16.40;26.50
21891;DHT22;11110;52.386;16.940;2024-01-10T13:41:44;16.40;26.30
21891;DHT22;11110;52.386;16.940;2024-01-10T13:44:14;16.40;26.30
21891;DHT22;11110;52.386;16.940;2024-01-10T13:46:43;16.50;26.20
21891;DHT22;11110;52.386;16.940;2024-01-10T13:49:11;16.50;26.10
21891;DHT22;11110;52.386;16.940;2024-01-10T13:51:41;16.50;26.10
21891;DHT22;11110;52.386;16.940;2024-01-10T13:54:10;16.50;26.40
21891;DHT22;11110;52.386;16.940;2024-01-10T13:56:38;16.60;26.10
21891;DHT22;11110;52.386;16.940;2024-01-10T13:59:07;16.60;26.00
21891;DHT22;11110;52.386;16.940;2024-01-10T14:01:38;16.60;26.00
21891;DHT22;11110;52.386;16.940;2024-01-10T14:04:06;16.60;26.00
21891;DHT22;11110;52.386;16.940;2024-01-10T14:06:35;16.60;26.20
21891;DHT22;11110;52.386;16.940;2024-01-10T14:09:03;16.60;26.30
21891;DHT22;11110;52.386;16.940;2024-01-10T14:11:32;16.60;26.20
21891;DHT22;11110;52.386;16.940;2024-01-10T14:14:02;16.60;26.30
21891;DHT22;11110;52.386;16.940;2024-01-10T14:16:31;16.60;26.40
21891;DHT22;11110;52.386;16.940;2024-01-10T14:19:01;16.60;26.30
21891;DHT22;11110;52.386;16.940;2024-01-10T14:21:30;16.60;26.40
21891;DHT22;11110;52.386;16.940;2024-01-10T14:23:59;16.60;26.30
21891;DHT22;11110;52.386;16.940;2024-01-10T14:26:28;16.50;26.30
21891;DHT22;11110;52.386;16.940;2024-01-10T14:28:56;16.50;26.30
21891;DHT22;11110;52.386;16.940;2024-01-10T14:31:26;16.40;26.30
21891;DHT22;11110;52.386;16.940;2024-01-10T14:34:16;16.40;26.40
21891;DHT22;11110;52.386;16.940;2024-01-10T14:36:47;16.40;26.40
21891;DHT22;11110;52.386;16.940;2024-01-10T14:39:15;16.30;26.30
21891;DHT22;11110;52.386;16.940;2024-01-10T14:41:45;16.30;27.00
21891;DHT22;11110;52.386;16.940;2024-01-10T14:44:13;16.30;26.30
21891;DHT22;11110;52.386;16.940;2024-01-10T14:46:42;16.30;26.30
21891;DHT22;11110;52.386;16.940;2024-01-10T14:49:23;16.20;26.50
21891;DHT22;11110;52.386;16.940;2024-01-10T14:51:52;16.20;26.50
21891;DHT22;11110;52.386;16.940;2024-01-10T14:54:21;16.10;27.10
21891;DHT22;11110;52.386;16.940;2024-01-10T14:56:49;16.10;26.80
21891;DHT22;11110;52.386;16.940;2024-01-10T14:59:20;16.00;26.90
21891;DHT22;11110;52.386;16.940;2024-01-10T15:02:08;15.90;26.90
21891;DHT22;11110;52.386;16.940;2024-01-10T15:04:39;15.80;27.10
21891;DHT22;11110;52.386;16.940;2024-01-10T15:07:07;15.60;27.20
21891;DHT22;11110;52.386;16.940;2024-01-10T15:09:36;15.40;27.30
21891;DHT22;11110;52.386;16.940;2024-01-10T15:12:05;15.30;27.60
21891;DHT22;11110;52.386;16.940;2024-01-10T15:14:36;15.20;27.80
21891;DHT22;11110;52.386;16.940;2024-01-10T15:17:07;15.10;27.90
21891;DHT22;11110;52.386;16.940;2024-01-10T15:19:40;15.00;28.00
21891;DHT22;11110;52.386;16.940;2024-01-10T15:22:09;15.00;28.30
21891;DHT22;11110;52.386;16.940;2024-01-10T15:24:37;15.00;28.30
21891;DHT22;11110;52.386;16.940;2024-01-10T15:27:07;14.90;28.40
21891;DHT22;11110;52.386;16.940;2024-01-10T15:29:39;14.80;28.40
21891;DHT22;11110;52.386;16.940;2024-01-10T15:32:08;14.80;28.40
21891;DHT22;11110;52.386;16.940;2024-01-10T15:34:37;14.70;28.50
21891;DHT22;11110;52.386;16.940;2024-01-10T15:37:08;14.60;28.60
21891;DHT22;11110;52.386;16.940;2024-01-10T15:39:37;14.60;28.60
21891;DHT22;11110;52.386;16.940;2024-01-10T15:42:08;14.50;28.60